Main page
METAR-TAF:

METAR-TAF

Airports :

Kimberley Airport

Kimberley, South Africa

latitude: 28-48S, longitude: 024-46E, elevation: 1198 m

Current weather observation

The report was made 36 minutes ago, at 05:18 UTC
Wind 4 kt from the North/Northeast
Temperature 18°C
Humidity 77%
Pressure 1020 hPa
Visibility 10 km or more
no clouds below 1500 m and no cumulonimbus

METAR: FAKM 020518Z 03004KT CAVOK 18/14 Q1020

Time: 07:54 (05:54 UTC)

Forecast

The report was made 2 hours and 54 minutes ago, at 03:00 UTC
Forecast valid from 02 at 04 UTC to 02 at 15 UTC
Wind 3 kt from variable directions
Visibility 10 km or more
no clouds below 1500 m and no cumulonimbus
Temporary
from 02 at 14 UTC to 02 at 15 UTC
Few clouds at a height of 5000 ft, Towering cumulus.

TAF: FAKM 020300Z 0204/0215 VRB03KT CAVOK TX35/0212Z TN17/0204Z TEMPO 0214/0215 FEW050TCU

Weather observations and forecasts of more than 4000 airports (METAR and TAF reports).

The available stations are represented by yellow and red dots on the map.

Hover mouse over dot to see the name of the station.

Then click to see weather observations and forecasts.

To change the map : click on the green buttons with a black cross to zoom in, on the green button with a dash to zoom out, or on the green arrows for adjacent maps.


METAR-TAF: